Aviation Digital Data Service (ADDS)

Output produced by METARs form (1343 UTC 21 August 2019)
found at http://www.aviationweather.gov/metar/data/
 
METAR text: ETHF 211320Z 09003KT 9999 SCT060 22/06 Q1027 BLU+BLU+
Conditions at: ETHF (FRITZLAR (GER-AR, DE) observed 1320 UTC 21 August 2019
Temperature: 22.0°C (72°F)
Dewpoint: 6.0°C (43°F) [RH = 35%]
Pressure (altimeter): 30.32 inches Hg (1027.0 mb)
Winds: from the E (90 degrees) at 3 MPH (3 knots; 1.5 m/s)
Visibility: 6 or more miles (10+ km)
Ceiling: at least 12,000 feet AGL
Clouds: scattered clouds at 6000 feet AGL
Weather: no significant weather observed at this time

METAR text: ETHF 211220Z 20004KT 9999 SCT055 22/07 Q1028 BLU+BLU+
Conditions at: ETHF (FRITZLAR (GER-AR, DE) observed 1220 UTC 21 August 2019
Temperature: 22.0°C (72°F)
Dewpoint: 7.0°C (45°F) [RH = 38%]
Pressure (altimeter): 30.35 inches Hg (1028.0 mb)
Winds: from the SSW (200 degrees) at 5 MPH (4 knots; 2.1 m/s)
Visibility: 6 or more miles (10+ km)
Ceiling: at least 12,000 feet AGL
Clouds: scattered clouds at 5500 feet AGL
Weather: no significant weather observed at this time

METAR text: ETHF 211120Z 24004KT 9999 SCT055 21/08 Q1028 BLU+BLU+
Conditions at: ETHF (FRITZLAR (GER-AR, DE) observed 1120 UTC 21 August 2019
Temperature: 21.0°C (70°F)
Dewpoint: 8.0°C (46°F) [RH = 43%]
Pressure (altimeter): 30.35 inches Hg (1028.0 mb)
Winds: from the WSW (240 degrees) at 5 MPH (4 knots; 2.1 m/s)
Visibility: 6 or more miles (10+ km)
Ceiling: at least 12,000 feet AGL
Clouds: scattered clouds at 5500 feet AGL
Weather: no significant weather observed at this time

METAR text: ETHF 211020Z 13004KT 9999 SCT050 19/08 Q1029 BLU+BLU+
Conditions at: ETHF (FRITZLAR (GER-AR, DE) observed 1020 UTC 21 August 2019
Temperature: 19.0°C (66°F)
Dewpoint: 8.0°C (46°F) [RH = 49%]
Pressure (altimeter): 30.38 inches Hg (1029.0 mb)
Winds: from the SE (130 degrees) at 5 MPH (4 knots; 2.1 m/s)
Visibility: 6 or more miles (10+ km)
Ceiling: at least 12,000 feet AGL
Clouds: scattered clouds at 5000 feet AGL
Weather: no significant weather observed at this time

METAR text: ETHF 210920Z VRB03KT 9999 FEW040 19/09 Q1029 BLU+BLU+
Conditions at: ETHF (FRITZLAR (GER-AR, DE) observed 0920 UTC 21 August 2019
Temperature: 19.0°C (66°F)
Dewpoint: 9.0°C (48°F) [RH = 52%]
Pressure (altimeter): 30.38 inches Hg (1029.0 mb)
Winds: variable direction winds at 3 MPH (3 knots; 1.5 m/s)
Visibility: 6 or more miles (10+ km)
Ceiling: at least 12,000 feet AGL
Clouds: few clouds at 4000 feet AGL
Weather: no significant weather observed at this time

METAR text: ETHF 210820Z 12002KT 9999 FEW024 16/10 Q1029 BLU+BLU+
Conditions at: ETHF (FRITZLAR (GER-AR, DE) observed 0820 UTC 21 August 2019
Temperature: 16.0°C (61°F)
Dewpoint: 10.0°C (50°F) [RH = 68%]
Pressure (altimeter): 30.38 inches Hg (1029.0 mb)
Winds: from the ESE (120 degrees) at 2 MPH (2 knots; 1.0 m/s)
Visibility: 6 or more miles (10+ km)
Ceiling: at least 12,000 feet AGL
Clouds: few clouds at 2400 feet AGL
Weather: no significant weather observed at this time

METAR text: ETHF 210720Z 06001KT 9999 FEW070 13/09 Q1029 BLU+BLU+
Conditions at: ETHF (FRITZLAR (GER-AR, DE) observed 0720 UTC 21 August 2019
Temperature: 13.0°C (55°F)
Dewpoint: 9.0°C (48°F) [RH = 77%]
Pressure (altimeter): 30.38 inches Hg (1029.0 mb)
Winds: from the ENE (60 degrees) at 1 MPH (1 knots; 0.5 m/s)
Visibility: 6 or more miles (10+ km)
Ceiling: at least 12,000 feet AGL
Clouds: few clouds at 7000 feet AGL
Weather: no significant weather observed at this time

METAR text: ETHF 210620Z 00000KT 9999 FEW060 12/09 Q1029 BLU+BLU+
Conditions at: ETHF (FRITZLAR (GER-AR, DE) observed 0620 UTC 21 August 2019
Temperature: 12.0°C (54°F)
Dewpoint: 9.0°C (48°F) [RH = 82%]
Pressure (altimeter): 30.38 inches Hg (1029.0 mb)
Winds: calm
Visibility: 6 or more miles (10+ km)
Ceiling: at least 12,000 feet AGL
Clouds: few clouds at 6000 feet AGL
Weather: no significant weather observed at this time

METAR text: ETHF 210520Z 29001KT 9999 FEW060 09/08 Q1029 BLU+BLU+
Conditions at: ETHF (FRITZLAR (GER-AR, DE) observed 0520 UTC 21 August 2019
Temperature: 9.0°C (48°F)
Dewpoint: 8.0°C (46°F) [RH = 93%]
Pressure (altimeter): 30.38 inches Hg (1029.0 mb)
Winds: from the WNW (290 degrees) at 1 MPH (1 knots; 0.5 m/s)
Visibility: 6 or more miles (10+ km)
Ceiling: at least 12,000 feet AGL
Clouds: few clouds at 6000 feet AGL
Weather: no significant weather observed at this time

METAR text: ETHF 210420Z 35001KT 9999 MIFG FEW080 08/08 Q1028 BLU+BLU+
Conditions at: ETHF (FRITZLAR (GER-AR, DE) observed 0420 UTC 21 August 2019
Temperature: 8.0°C (46°F)
Dewpoint: 8.0°C (46°F) [RH = 100%]
Pressure (altimeter): 30.35 inches Hg (1028.0 mb)
Winds: from the N (350 degrees) at 1 MPH (1 knots; 0.5 m/s)
Visibility: 6 or more miles (10+ km)
Ceiling: at least 12,000 feet AGL
Clouds: few clouds at 8000 feet AGL
Weather: MIFG  (shallow fog)

METAR text: ETHF 210320Z 00000KT 9999 MIFG FEW080 08/07 Q1028 BLU+
Conditions at: ETHF (FRITZLAR (GER-AR, DE) observed 0320 UTC 21 August 2019
Temperature: 8.0°C (46°F)
Dewpoint: 7.0°C (45°F) [RH = 93%]
Pressure (altimeter): 30.35 inches Hg (1028.0 mb)
Winds: calm
Visibility: 6 or more miles (10+ km)
Ceiling: at least 12,000 feet AGL
Clouds: few clouds at 8000 feet AGL
Weather: MIFG  (shallow fog)

METAR text: ETHF 210220Z 00000KT 9999 FEW280 08/07 Q1027 BLU+
Conditions at: ETHF (FRITZLAR (GER-AR, DE) observed 0220 UTC 21 August 2019
Temperature: 8.0°C (46°F)
Dewpoint: 7.0°C (45°F) [RH = 93%]
Pressure (altimeter): 30.32 inches Hg (1027.0 mb)
Winds: calm
Visibility: 6 or more miles (10+ km)
Ceiling: at least 12,000 feet AGL
Clouds: few clouds at 28000 feet AGL
Weather: no significant weather observed at this time

METAR text: ETHF 210120Z 28002KT 9999 FEW080 10/08 Q1027 BLU+
Conditions at: ETHF (FRITZLAR (GER-AR, DE) observed 0120 UTC 21 August 2019
Temperature: 10.0°C (50°F)
Dewpoint: 8.0°C (46°F) [RH = 87%]
Pressure (altimeter): 30.32 inches Hg (1027.0 mb)
Winds: from the W (280 degrees) at 2 MPH (2 knots; 1.0 m/s)
Visibility: 6 or more miles (10+ km)
Ceiling: at least 12,000 feet AGL
Clouds: few clouds at 8000 feet AGL
Weather: no significant weather observed at this time

METAR text: ETHF 210020Z 31001KT 9999 FEW080 11/09 Q1027 BLU+
Conditions at: ETHF (FRITZLAR (GER-AR, DE) observed 0020 UTC 21 August 2019
Temperature: 11.0°C (52°F)
Dewpoint: 9.0°C (48°F) [RH = 87%]
Pressure (altimeter): 30.32 inches Hg (1027.0 mb)
Winds: from the NW (310 degrees) at 1 MPH (1 knots; 0.5 m/s)
Visibility: 6 or more miles (10+ km)
Ceiling: at least 12,000 feet AGL
Clouds: few clouds at 8000 feet AGL
Weather: no significant weather observed at this time

METAR text: ETHF 202320Z 12004KT 9999 BKN085 11/08 Q1026 BLU
Conditions at: ETHF (FRITZLAR (GER-AR, DE) observed 2320 UTC 20 August 2019
Temperature: 11.0°C (52°F)
Dewpoint: 8.0°C (46°F) [RH = 82%]
Pressure (altimeter): 30.30 inches Hg (1026.0 mb)
Winds: from the ESE (120 degrees) at 5 MPH (4 knots; 2.1 m/s)
Visibility: 6 or more miles (10+ km)
Ceiling: 8500 feet AGL
Clouds: broken clouds at 8500 feet AGL
Weather: no significant weather observed at this time

METAR text: ETHF 202220Z 31007KT 9999 FEW090 BKN250 13/09 Q1026 BLU+
Conditions at: ETHF (FRITZLAR (GER-AR, DE) observed 2220 UTC 20 August 2019
Temperature: 13.0°C (55°F)
Dewpoint: 9.0°C (48°F) [RH = 77%]
Pressure (altimeter): 30.30 inches Hg (1026.0 mb)
Winds: from the NW (310 degrees) at 8 MPH (7 knots; 3.6 m/s)
Visibility: 6 or more miles (10+ km)
Ceiling: 25000 feet AGL
Clouds: few clouds at 9000 feet AGL
broken clouds at 25000 feet AGL
Weather: no significant weather observed at this time

METAR text: ETHF 202120Z 35001KT 9999 BKN230 14/08 Q1026 BLU+
Conditions at: ETHF (FRITZLAR (GER-AR, DE) observed 2120 UTC 20 August 2019
Temperature: 14.0°C (57°F)
Dewpoint: 8.0°C (46°F) [RH = 67%]
Pressure (altimeter): 30.30 inches Hg (1026.0 mb)
Winds: from the N (350 degrees) at 1 MPH (1 knots; 0.5 m/s)
Visibility: 6 or more miles (10+ km)
Ceiling: 23000 feet AGL
Clouds: broken clouds at 23000 feet AGL
Weather: no significant weather observed at this time

METAR text: ETHF 202020Z VRB03KT 9999 BKN230 15/08 Q1025 BLU+
Conditions at: ETHF (FRITZLAR (GER-AR, DE) observed 2020 UTC 20 August 2019
Temperature: 15.0°C (59°F)
Dewpoint: 8.0°C (46°F) [RH = 63%]
Pressure (altimeter): 30.27 inches Hg (1025.0 mb)
Winds: variable direction winds at 3 MPH (3 knots; 1.5 m/s)
Visibility: 6 or more miles (10+ km)
Ceiling: 23000 feet AGL
Clouds: broken clouds at 23000 feet AGL
Weather: no significant weather observed at this time

METAR text: ETHF 201920Z 31005KT 9999 FEW055 BKN210 17/08 Q1025 BLU+
Conditions at: ETHF (FRITZLAR (GER-AR, DE) observed 1920 UTC 20 August 2019
Temperature: 17.0°C (63°F)
Dewpoint: 8.0°C (46°F) [RH = 55%]
Pressure (altimeter): 30.27 inches Hg (1025.0 mb)
Winds: from the NW (310 degrees) at 6 MPH (5 knots; 2.6 m/s)
Visibility: 6 or more miles (10+ km)
Ceiling: 21000 feet AGL
Clouds: few clouds at 5500 feet AGL
broken clouds at 21000 feet AGL
Weather: no significant weather observed at this time

METAR text: ETHF 201820Z 28003KT 9999 FEW055 BKN210 18/08 Q1024 BLU+
Conditions at: ETHF (FRITZLAR (GER-AR, DE) observed 1820 UTC 20 August 2019
Temperature: 18.0°C (64°F)
Dewpoint: 8.0°C (46°F) [RH = 52%]
Pressure (altimeter): 30.24 inches Hg (1024.0 mb)
Winds: from the W (280 degrees) at 3 MPH (3 knots; 1.5 m/s)
Visibility: 6 or more miles (10+ km)
Ceiling: 21000 feet AGL
Clouds: few clouds at 5500 feet AGL
broken clouds at 21000 feet AGL
Weather: no significant weather observed at this time

METAR text: ETHF 201720Z 26005KT 9999 FEW060 OVC180 20/07 Q1023 BLU
Conditions at: ETHF (FRITZLAR (GER-AR, DE) observed 1720 UTC 20 August 2019
Temperature: 20.0°C (68°F)
Dewpoint: 7.0°C (45°F) [RH = 43%]
Pressure (altimeter): 30.21 inches Hg (1023.0 mb)
Winds: from the W (260 degrees) at 6 MPH (5 knots; 2.6 m/s)
Visibility: 6 or more miles (10+ km)
Ceiling: 18000 feet AGL
Clouds: few clouds at 6000 feet AGL
overcast cloud deck at 18000 feet AGL
Weather: no significant weather observed at this time

METAR text: ETHF 201620Z 25005KT 9999 FEW060 BKN170 20/06 Q1023 BLU
Conditions at: ETHF (FRITZLAR (GER-AR, DE) observed 1620 UTC 20 August 2019
Temperature: 20.0°C (68°F)
Dewpoint: 6.0°C (43°F) [RH = 40%]
Pressure (altimeter): 30.21 inches Hg (1023.0 mb)
Winds: from the WSW (250 degrees) at 6 MPH (5 knots; 2.6 m/s)
Visibility: 6 or more miles (10+ km)
Ceiling: 17000 feet AGL
Clouds: few clouds at 6000 feet AGL
broken clouds at 17000 feet AGL
Weather: no significant weather observed at this time

METAR text: ETHF 201520Z 26007KT 9999 FEW060 BKN170 21/06 Q1023 BLU
Conditions at: ETHF (FRITZLAR (GER-AR, DE) observed 1520 UTC 20 August 2019
Temperature: 21.0°C (70°F)
Dewpoint: 6.0°C (43°F) [RH = 38%]
Pressure (altimeter): 30.21 inches Hg (1023.0 mb)
Winds: from the W (260 degrees) at 8 MPH (7 knots; 3.6 m/s)
Visibility: 6 or more miles (10+ km)
Ceiling: 17000 feet AGL
Clouds: few clouds at 6000 feet AGL
broken clouds at 17000 feet AGL
Weather: no significant weather observed at this time

METAR text: ETHF 201500Z 24005KT 9999 FEW060 BKN180 21/06 Q1023 BLU FCST CANCEL
Conditions at: ETHF (FRITZLAR (GER-AR, DE) observed 1500 UTC 20 August 2019
Temperature: 21.0°C (70°F)
Dewpoint: 6.0°C (43°F) [RH = 38%]
Pressure (altimeter): 30.21 inches Hg (1023.0 mb)
Winds: from the WSW (240 degrees) at 6 MPH (5 knots; 2.6 m/s)
Visibility: 6 or more miles (10+ km)
Ceiling: 18000 feet AGL
Clouds: few clouds at 6000 feet AGL
broken clouds at 18000 feet AGL
Weather: no significant weather observed at this time

METAR text: ETHF 201420Z 29005KT 9999 FEW060 BKN170 21/06 Q1022 BLU BLU
Conditions at: ETHF (FRITZLAR (GER-AR, DE) observed 1420 UTC 20 August 2019
Temperature: 21.0°C (70°F)
Dewpoint: 6.0°C (43°F) [RH = 38%]
Pressure (altimeter): 30.18 inches Hg (1022.0 mb)
Winds: from the WNW (290 degrees) at 6 MPH (5 knots; 2.6 m/s)
Visibility: 6 or more miles (10+ km)
Ceiling: 17000 feet AGL
Clouds: few clouds at 6000 feet AGL
broken clouds at 17000 feet AGL
Weather: no significant weather observed at this time

METAR text: ETHF 201320Z 24001KT 9999 FEW060 BKN150 21/07 Q1022 BLU BLU
Conditions at: ETHF (FRITZLAR (GER-AR, DE) observed 1320 UTC 20 August 2019
Temperature: 21.0°C (70°F)
Dewpoint: 7.0°C (45°F) [RH = 40%]
Pressure (altimeter): 30.18 inches Hg (1022.0 mb)
Winds: from the WSW (240 degrees) at 1 MPH (1 knots; 0.5 m/s)
Visibility: 6 or more miles (10+ km)
Ceiling: 15000 feet AGL
Clouds: few clouds at 6000 feet AGL
broken clouds at 15000 feet AGL
Weather: no significant weather observed at this time

METAR text: ETHF 201220Z 35001KT 9999 FEW060 BKN160 21/08 Q1022 BLU BLU
Conditions at: ETHF (FRITZLAR (GER-AR, DE) observed 1220 UTC 20 August 2019
Temperature: 21.0°C (70°F)
Dewpoint: 8.0°C (46°F) [RH = 43%]
Pressure (altimeter): 30.18 inches Hg (1022.0 mb)
Winds: from the N (350 degrees) at 1 MPH (1 knots; 0.5 m/s)
Visibility: 6 or more miles (10+ km)
Ceiling: 16000 feet AGL
Clouds: few clouds at 6000 feet AGL
broken clouds at 16000 feet AGL
Weather: no significant weather observed at this time

METAR text: ETHF 201120Z 13003KT 9999 FEW035 BKN160 20/08 Q1022 BLU BLU
Conditions at: ETHF (FRITZLAR (GER-AR, DE) observed 1120 UTC 20 August 2019
Temperature: 20.0°C (68°F)
Dewpoint: 8.0°C (46°F) [RH = 46%]
Pressure (altimeter): 30.18 inches Hg (1022.0 mb)
Winds: from the SE (130 degrees) at 3 MPH (3 knots; 1.5 m/s)
Visibility: 6 or more miles (10+ km)
Ceiling: 16000 feet AGL
Clouds: few clouds at 3500 feet AGL
broken clouds at 16000 feet AGL
Weather: no significant weather observed at this time

METAR text: ETHF 201020Z 15004KT 9999 FEW030 OVC180 19/09 Q1023 BLU BLU
Conditions at: ETHF (FRITZLAR (GER-AR, DE) observed 1020 UTC 20 August 2019
Temperature: 19.0°C (66°F)
Dewpoint: 9.0°C (48°F) [RH = 52%]
Pressure (altimeter): 30.21 inches Hg (1023.0 mb)
Winds: from the SSE (150 degrees) at 5 MPH (4 knots; 2.1 m/s)
Visibility: 6 or more miles (10+ km)
Ceiling: 18000 feet AGL
Clouds: few clouds at 3000 feet AGL
overcast cloud deck at 18000 feet AGL
Weather: no significant weather observed at this time

METAR text: ETHF 200920Z 18003KT 9999 FEW028 BKN240 18/11 Q1022 BLU+BLU+
Conditions at: ETHF (FRITZLAR (GER-AR, DE) observed 0920 UTC 20 August 2019
Temperature: 18.0°C (64°F)
Dewpoint: 11.0°C (52°F) [RH = 64%]
Pressure (altimeter): 30.18 inches Hg (1022.0 mb)
Winds: from the S (180 degrees) at 3 MPH (3 knots; 1.5 m/s)
Visibility: 6 or more miles (10+ km)
Ceiling: 24000 feet AGL
Clouds: few clouds at 2800 feet AGL
broken clouds at 24000 feet AGL
Weather: no significant weather observed at this time

METAR text: ETHF 200820Z 14003KT 9999 FEW022 BKN260 17/11 Q1022 BLU+BLU+
Conditions at: ETHF (FRITZLAR (GER-AR, DE) observed 0820 UTC 20 August 2019
Temperature: 17.0°C (63°F)
Dewpoint: 11.0°C (52°F) [RH = 68%]
Pressure (altimeter): 30.18 inches Hg (1022.0 mb)
Winds: from the SE (140 degrees) at 3 MPH (3 knots; 1.5 m/s)
Visibility: 6 or more miles (10+ km)
Ceiling: 26000 feet AGL
Clouds: few clouds at 2200 feet AGL
broken clouds at 26000 feet AGL
Weather: no significant weather observed at this time

METAR text: ETHF 200720Z 15001KT 9999 FEW180 BKN250 15/11 Q1022 BLU+BLU+
Conditions at: ETHF (FRITZLAR (GER-AR, DE) observed 0720 UTC 20 August 2019
Temperature: 15.0°C (59°F)
Dewpoint: 11.0°C (52°F) [RH = 77%]
Pressure (altimeter): 30.18 inches Hg (1022.0 mb)
Winds: from the SSE (150 degrees) at 1 MPH (1 knots; 0.5 m/s)
Visibility: 6 or more miles (10+ km)
Ceiling: 25000 feet AGL
Clouds: few clouds at 18000 feet AGL
broken clouds at 25000 feet AGL
Weather: no significant weather observed at this time

METAR text: ETHF 200620Z 29002KT 9999 FEW140 BKN240 12/10 Q1022 BLU+BLU+
Conditions at: ETHF (FRITZLAR (GER-AR, DE) observed 0620 UTC 20 August 2019
Temperature: 12.0°C (54°F)
Dewpoint: 10.0°C (50°F) [RH = 88%]
Pressure (altimeter): 30.18 inches Hg (1022.0 mb)
Winds: from the WNW (290 degrees) at 2 MPH (2 knots; 1.0 m/s)
Visibility: 6 or more miles (10+ km)
Ceiling: 24000 feet AGL
Clouds: few clouds at 14000 feet AGL
broken clouds at 24000 feet AGL
Weather: no significant weather observed at this time

METAR text: ETHF 200520Z 30001KT 9999 FEW140 SCT240 10/09 Q1022 BLU+BLU+
Conditions at: ETHF (FRITZLAR (GER-AR, DE) observed 0520 UTC 20 August 2019
Temperature: 10.0°C (50°F)
Dewpoint: 9.0°C (48°F) [RH = 93%]
Pressure (altimeter): 30.18 inches Hg (1022.0 mb)
Winds: from the WNW (300 degrees) at 1 MPH (1 knots; 0.5 m/s)
Visibility: 6 or more miles (10+ km)
Ceiling: at least 12,000 feet AGL
Clouds: few clouds at 14000 feet AGL
scattered clouds at 24000 feet AGL
Weather: no significant weather observed at this time

METAR text: ETHF 200420Z 00000KT 9999 VCFG MIFG FEW140 SCT260 08/07 Q1021 BLU+BLU+
Conditions at: ETHF (FRITZLAR (GER-AR, DE) observed 0420 UTC 20 August 2019
Temperature: 8.0°C (46°F)
Dewpoint: 7.0°C (45°F) [RH = 93%]
Pressure (altimeter): 30.15 inches Hg (1021.0 mb)
Winds: calm
Visibility: 6 or more miles (10+ km)
Ceiling: at least 12,000 feet AGL
Clouds: few clouds at 14000 feet AGL
scattered clouds at 26000 feet AGL
Weather: VCFG MIFG  (fog in vicinity, shallow fog)

METAR text: ETHF 200320Z 28002KT 9999 VCFG FEW250 09/08 Q1021 BLU+
Conditions at: ETHF (FRITZLAR (GER-AR, DE) observed 0320 UTC 20 August 2019
Temperature: 9.0°C (48°F)
Dewpoint: 8.0°C (46°F) [RH = 93%]
Pressure (altimeter): 30.15 inches Hg (1021.0 mb)
Winds: from the W (280 degrees) at 2 MPH (2 knots; 1.0 m/s)
Visibility: 6 or more miles (10+ km)
Ceiling: at least 12,000 feet AGL
Clouds: few clouds at 25000 feet AGL
Weather: VCFG  (fog in vicinity)

METAR text: ETHF 200220Z VRB01KT 9999 09/08 Q1021 BLU+
Conditions at: ETHF (FRITZLAR (GER-AR, DE) observed 0220 UTC 20 August 2019
Temperature: 9.0°C (48°F)
Dewpoint: 8.0°C (46°F) [RH = 93%]
Pressure (altimeter): 30.15 inches Hg (1021.0 mb)
Winds: variable direction winds at 1 MPH (1 knots; 0.5 m/s)
Visibility: 6 or more miles (10+ km)
Ceiling: unknown
Clouds: missing
Weather: no significant weather observed at this time

Forecast for: ETHF (FRITZLAR (GER-AR, DE)
Text: TAF ETHF 211315Z 2114/2123 12008KT 9999 NSW SCT060
Forecast period: 1400 to 2300 UTC 21 August 2019
Forecast type: FROM: standard forecast or significant change
Winds: from the ESE (120 degrees) at 9 MPH (8 knots; 4.1 m/s)
Visibility: 6 or more miles 10+ km)
Ceiling: at least 12,000 feet AGL
Clouds: scattered clouds at 6000 feet AGL
Weather: NSW  (no significant weather)